sensor_id;sensor_type;location;lat;lon;timestamp;temperature;humidity
20442;DHT22;10380;52.102;20.614;2024-02-14T00:01:37;5.60;99.90
20442;DHT22;10380;52.102;20.614;2024-02-14T00:04:10;5.50;99.90
20442;DHT22;10380;52.102;20.614;2024-02-14T00:06:40;5.60;99.90
20442;DHT22;10380;52.102;20.614;2024-02-14T00:09:09;5.70;99.90
20442;DHT22;10380;52.102;20.614;2024-02-14T00:11:36;5.50;99.90
20442;DHT22;10380;52.102;20.614;2024-02-14T00:14:06;5.50;99.90
20442;DHT22;10380;52.102;20.614;2024-02-14T00:19:02;5.60;99.90
20442;DHT22;10380;52.102;20.614;2024-02-14T00:24:00;5.60;99.90
20442;DHT22;10380;52.102;20.614;2024-02-14T00:26:28;5.40;99.90
20442;DHT22;10380;52.102;20.614;2024-02-14T00:28:55;5.50;99.90
20442;DHT22;10380;52.102;20.614;2024-02-14T00:31:22;5.60;99.90
20442;DHT22;10380;52.102;20.614;2024-02-14T00:33:49;5.40;99.90
20442;DHT22;10380;52.102;20.614;2024-02-14T00:36:18;5.50;99.90
20442;DHT22;10380;52.102;20.614;2024-02-14T00:38:44;5.50;99.90
20442;DHT22;10380;52.102;20.614;2024-02-14T00:43:40;5.50;99.90
20442;DHT22;10380;52.102;20.614;2024-02-14T00:46:09;5.50;99.90
20442;DHT22;10380;52.102;20.614;2024-02-14T00:48:36;5.50;99.90
20442;DHT22;10380;52.102;20.614;2024-02-14T00:51:03;5.50;99.90
20442;DHT22;10380;52.102;20.614;2024-02-14T00:55:57;5.50;99.90
20442;DHT22;10380;52.102;20.614;2024-02-14T00:58:24;5.20;99.90
20442;DHT22;10380;52.102;20.614;2024-02-14T01:00:52;5.40;99.90
20442;DHT22;10380;52.102;20.614;2024-02-14T01:05:47;5.30;99.90
20442;DHT22;10380;52.102;20.614;2024-02-14T01:08:14;5.20;99.90
20442;DHT22;10380;52.102;20.614;2024-02-14T01:10:42;5.20;99.90
20442;DHT22;10380;52.102;20.614;2024-02-14T01:15:36;5.10;99.90
20442;DHT22;10380;52.102;20.614;2024-02-14T01:18:03;5.00;99.90
20442;DHT22;10380;52.102;20.614;2024-02-14T01:22:58;4.80;99.90
20442;DHT22;10380;52.102;20.614;2024-02-14T01:25:26;4.70;99.90
20442;DHT22;10380;52.102;20.614;2024-02-14T01:27:53;4.70;99.90
20442;DHT22;10380;52.102;20.614;2024-02-14T01:30:20;4.60;99.90
20442;DHT22;10380;52.102;20.614;2024-02-14T01:32:47;4.60;99.90
20442;DHT22;10380;52.102;20.614;2024-02-14T01:35:14;4.60;99.90
20442;DHT22;10380;52.102;20.614;2024-02-14T01:37:42;4.50;99.90
20442;DHT22;10380;52.102;20.614;2024-02-14T01:40:18;4.50;99.90
20442;DHT22;10380;52.102;20.614;2024-02-14T01:42:45;4.30;99.90
20442;DHT22;10380;52.102;20.614;2024-02-14T01:45:14;4.40;99.90
20442;DHT22;10380;52.102;20.614;2024-02-14T01:47:41;4.30;99.90
20442;DHT22;10380;52.102;20.614;2024-02-14T01:50:09;4.40;99.90
20442;DHT22;10380;52.102;20.614;2024-02-14T01:52:38;4.40;99.90
20442;DHT22;10380;52.102;20.614;2024-02-14T01:55:07;4.30;99.90
20442;DHT22;10380;52.102;20.614;2024-02-14T01:57:36;4.30;99.90
20442;DHT22;10380;52.102;20.614;2024-02-14T02:00:06;4.20;99.90
20442;DHT22;10380;52.102;20.614;2024-02-14T02:02:36;4.20;99.90
20442;DHT22;10380;52.102;20.614;2024-02-14T02:05:04;4.10;99.90
20442;DHT22;10380;52.102;20.614;2024-02-14T02:07:34;4.10;99.90
20442;DHT22;10380;52.102;20.614;2024-02-14T02:10:02;4.10;99.90
20442;DHT22;10380;52.102;20.614;2024-02-14T02:12:31;4.50;99.90
20442;DHT22;10380;52.102;20.614;2024-02-14T02:19:54;3.90;99.90
20442;DHT22;10380;52.102;20.614;2024-02-14T02:22:21;3.80;99.90
20442;DHT22;10380;52.102;20.614;2024-02-14T02:24:50;3.70;99.90
20442;DHT22;10380;52.102;20.614;2024-02-14T02:34:40;3.40;99.90
20442;DHT22;10380;52.102;20.614;2024-02-14T02:37:08;3.40;99.90
20442;DHT22;10380;52.102;20.614;2024-02-14T02:44:31;3.40;99.90
20442;DHT22;10380;52.102;20.614;2024-02-14T02:46:58;3.60;99.90
20442;DHT22;10380;52.102;20.614;2024-02-14T02:49:27;3.30;99.90
20442;DHT22;10380;52.102;20.614;2024-02-14T02:51:56;3.40;99.90
20442;DHT22;10380;52.102;20.614;2024-02-14T02:54:25;3.30;99.90
20442;DHT22;10380;52.102;20.614;2024-02-14T02:56:51;3.30;99.90
20442;DHT22;10380;52.102;20.614;2024-02-14T02:59:19;3.30;99.90
20442;DHT22;10380;52.102;20.614;2024-02-14T03:01:45;3.30;99.90
20442;DHT22;10380;52.102;20.614;2024-02-14T03:04:13;3.30;99.90
20442;DHT22;10380;52.102;20.614;2024-02-14T03:06:42;3.30;99.90
20442;DHT22;10380;52.102;20.614;2024-02-14T03:11:39;3.30;99.90
20442;DHT22;10380;52.102;20.614;2024-02-14T03:16:34;3.30;99.90
20442;DHT22;10380;52.102;20.614;2024-02-14T03:19:05;3.40;99.90
20442;DHT22;10380;52.102;20.614;2024-02-14T03:29:33;3.30;99.90
20442;DHT22;10380;52.102;20.614;2024-02-14T03:32:02;3.20;99.90
20442;DHT22;10380;52.102;20.614;2024-02-14T03:34:31;3.10;99.90
20442;DHT22;10380;52.102;20.614;2024-02-14T03:37:05;3.20;99.90
20442;DHT22;10380;52.102;20.614;2024-02-14T03:39:34;3.10;99.90
20442;DHT22;10380;52.102;20.614;2024-02-14T03:42:01;3.10;99.90
20442;DHT22;10380;52.102;20.614;2024-02-14T03:44:35;3.00;99.90
20442;DHT22;10380;52.102;20.614;2024-02-14T03:47:05;3.00;99.90
20442;DHT22;10380;52.102;20.614;2024-02-14T03:49:33;3.00;99.90
20442;DHT22;10380;52.102;20.614;2024-02-14T03:52:01;3.00;99.90
20442;DHT22;10380;52.102;20.614;2024-02-14T03:54:38;2.90;99.90
20442;DHT22;10380;52.102;20.614;2024-02-14T03:57:05;2.80;99.90
20442;DHT22;10380;52.102;20.614;2024-02-14T03:59:36;2.80;99.90
20442;DHT22;10380;52.102;20.614;2024-02-14T04:02:03;2.80;99.90
20442;DHT22;10380;52.102;20.614;2024-02-14T04:04:30;2.70;99.90
20442;DHT22;10380;52.102;20.614;2024-02-14T04:06:58;2.70;99.90
20442;DHT22;10380;52.102;20.614;2024-02-14T04:14:22;2.60;99.90
20442;DHT22;10380;52.102;20.614;2024-02-14T04:16:51;2.90;99.90
20442;DHT22;10380;52.102;20.614;2024-02-14T04:21:46;2.50;99.90
20442;DHT22;10380;52.102;20.614;2024-02-14T04:24:13;2.30;99.90
20442;DHT22;10380;52.102;20.614;2024-02-14T04:26:41;2.50;99.90
20442;DHT22;10380;52.102;20.614;2024-02-14T04:31:37;2.70;99.90
20442;DHT22;10380;52.102;20.614;2024-02-14T04:39:02;2.40;99.90
20442;DHT22;10380;52.102;20.614;2024-02-14T04:41:30;2.40;99.90
20442;DHT22;10380;52.102;20.614;2024-02-14T04:43:59;2.40;99.90
20442;DHT22;10380;52.102;20.614;2024-02-14T04:46:27;2.30;99.90
20442;DHT22;10380;52.102;20.614;2024-02-14T04:48:54;2.30;99.90
20442;DHT22;10380;52.102;20.614;2024-02-14T04:53:48;3.10;99.90
20442;DHT22;10380;52.102;20.614;2024-02-14T04:56:15;2.40;99.90
20442;DHT22;10380;52.102;20.614;2024-02-14T04:58:42;2.30;99.90
20442;DHT22;10380;52.102;20.614;2024-02-14T05:06:05;2.20;99.90
20442;DHT22;10380;52.102;20.614;2024-02-14T05:08:32;2.20;99.90
20442;DHT22;10380;52.102;20.614;2024-02-14T05:11:00;2.10;99.90
20442;DHT22;10380;52.102;20.614;2024-02-14T05:13:28;2.10;99.90
20442;DHT22;10380;52.102;20.614;2024-02-14T05:18:24;2.10;99.90
20442;DHT22;10380;52.102;20.614;2024-02-14T05:23:18;2.10;99.90
20442;DHT22;10380;52.102;20.614;2024-02-14T05:25:48;2.20;99.90
20442;DHT22;10380;52.102;20.614;2024-02-14T05:28:17;2.10;99.90
20442;DHT22;10380;52.102;20.614;2024-02-14T05:33:12;2.10;99.90
20442;DHT22;10380;52.102;20.614;2024-02-14T05:35:39;2.00;99.90
20442;DHT22;10380;52.102;20.614;2024-02-14T05:38:06;2.00;99.90
20442;DHT22;10380;52.102;20.614;2024-02-14T05:43:04;1.90;99.90
20442;DHT22;10380;52.102;20.614;2024-02-14T05:50:28;2.00;99.90
20442;DHT22;10380;52.102;20.614;2024-02-14T05:57:53;1.90;99.90
20442;DHT22;10380;52.102;20.614;2024-02-14T06:00:22;1.90;99.90
20442;DHT22;10380;52.102;20.614;2024-02-14T06:07:49;1.90;99.90
20442;DHT22;10380;52.102;20.614;2024-02-14T06:10:17;1.80;99.90
20442;DHT22;10380;52.102;20.614;2024-02-14T06:12:45;1.60;99.90
20442;DHT22;10380;52.102;20.614;2024-02-14T06:27:40;1.80;99.90
20442;DHT22;10380;52.102;20.614;2024-02-14T06:37:31;2.00;99.90
20442;DHT22;10380;52.102;20.614;2024-02-14T06:47:35;2.10;99.90
20442;DHT22;10380;52.102;20.614;2024-02-14T06:54:57;2.30;99.90
20442;DHT22;10380;52.102;20.614;2024-02-14T06:57:25;2.30;99.90
20442;DHT22;10380;52.102;20.614;2024-02-14T06:59:52;2.50;99.90
20442;DHT22;10380;52.102;20.614;2024-02-14T07:04:46;2.60;99.90
20442;DHT22;10380;52.102;20.614;2024-02-14T07:07:13;2.70;99.90
20442;DHT22;10380;52.102;20.614;2024-02-14T07:09:40;2.80;99.90
20442;DHT22;10380;52.102;20.614;2024-02-14T07:12:07;2.90;99.90
20442;DHT22;10380;52.102;20.614;2024-02-14T07:14:34;3.00;99.90
20442;DHT22;10380;52.102;20.614;2024-02-14T07:17:01;3.00;99.90
20442;DHT22;10380;52.102;20.614;2024-02-14T07:21:56;3.20;99.90
20442;DHT22;10380;52.102;20.614;2024-02-14T07:24:23;3.30;99.90
20442;DHT22;10380;52.102;20.614;2024-02-14T07:31:44;3.50;99.90
20442;DHT22;10380;52.102;20.614;2024-02-14T07:34:11;3.60;99.90
20442;DHT22;10380;52.102;20.614;2024-02-14T07:36:39;3.80;99.90
20442;DHT22;10380;52.102;20.614;2024-02-14T07:41:35;3.90;99.90
20442;DHT22;10380;52.102;20.614;2024-02-14T07:44:02;4.00;99.90
20442;DHT22;10380;52.102;20.614;2024-02-14T07:48:58;4.10;99.90
20442;DHT22;10380;52.102;20.614;2024-02-14T07:53:55;4.20;99.90
20442;DHT22;10380;52.102;20.614;2024-02-14T08:01:16;4.50;99.90
20442;DHT22;10380;52.102;20.614;2024-02-14T08:03:43;4.60;99.90
20442;DHT22;10380;52.102;20.614;2024-02-14T08:06:13;4.70;99.90
20442;DHT22;10380;52.102;20.614;2024-02-14T08:11:07;5.00;99.90
20442;DHT22;10380;52.102;20.614;2024-02-14T08:13:34;5.20;99.90
20442;DHT22;10380;52.102;20.614;2024-02-14T08:20:56;5.40;99.90
20442;DHT22;10380;52.102;20.614;2024-02-14T08:23:23;5.40;99.90
20442;DHT22;10380;52.102;20.614;2024-02-14T08:28:17;5.50;99.90
20442;DHT22;10380;52.102;20.614;2024-02-14T08:33:15;5.80;99.90
20442;DHT22;10380;52.102;20.614;2024-02-14T08:38:13;5.90;99.90
20442;DHT22;10380;52.102;20.614;2024-02-14T08:45:35;6.10;99.90
20442;DHT22;10380;52.102;20.614;2024-02-14T08:48:02;6.10;99.90
20442;DHT22;10380;52.102;20.614;2024-02-14T08:50:30;6.20;99.90
20442;DHT22;10380;52.102;20.614;2024-02-14T08:52:58;6.20;99.90
20442;DHT22;10380;52.102;20.614;2024-02-14T08:55:25;6.30;99.90
20442;DHT22;10380;52.102;20.614;2024-02-14T09:00:19;6.40;99.90
20442;DHT22;10380;52.102;20.614;2024-02-14T09:05:14;6.20;99.90
20442;DHT22;10380;52.102;20.614;2024-02-14T09:07:43;6.50;99.90
20442;DHT22;10380;52.102;20.614;2024-02-14T09:10:11;6.60;99.90
20442;DHT22;10380;52.102;20.614;2024-02-14T09:12:40;6.70;99.90
20442;DHT22;10380;52.102;20.614;2024-02-14T09:17:38;6.90;99.90
20442;DHT22;10380;52.102;20.614;2024-02-14T09:20:10;6.80;99.90
20442;DHT22;10380;52.102;20.614;2024-02-14T09:22:37;7.00;99.90
20442;DHT22;10380;52.102;20.614;2024-02-14T09:25:05;7.10;99.90
20442;DHT22;10380;52.102;20.614;2024-02-14T09:39:49;7.40;99.90
20442;DHT22;10380;52.102;20.614;2024-02-14T09:42:16;7.50;99.90
20442;DHT22;10380;52.102;20.614;2024-02-14T09:44:46;7.60;99.90
20442;DHT22;10380;52.102;20.614;2024-02-14T09:47:14;7.60;99.90
20442;DHT22;10380;52.102;20.614;2024-02-14T09:49:42;7.80;99.90
20442;DHT22;10380;52.102;20.614;2024-02-14T09:52:11;7.70;99.90
20442;DHT22;10380;52.102;20.614;2024-02-14T09:54:39;7.90;99.90
20442;DHT22;10380;52.102;20.614;2024-02-14T09:57:06;7.90;99.90
20442;DHT22;10380;52.102;20.614;2024-02-14T09:59:35;8.10;99.90
20442;DHT22;10380;52.102;20.614;2024-02-14T10:02:02;8.00;99.90
20442;DHT22;10380;52.102;20.614;2024-02-14T10:04:29;8.10;99.90
20442;DHT22;10380;52.102;20.614;2024-02-14T10:09:25;8.10;99.90
20442;DHT22;10380;52.102;20.614;2024-02-14T10:11:52;8.20;99.90
20442;DHT22;10380;52.102;20.614;2024-02-14T10:14:19;8.20;99.90
20442;DHT22;10380;52.102;20.614;2024-02-14T10:16:46;8.30;99.90
20442;DHT22;10380;52.102;20.614;2024-02-14T10:19:17;8.60;99.90
20442;DHT22;10380;52.102;20.614;2024-02-14T10:21:55;8.60;99.90
20442;DHT22;10380;52.102;20.614;2024-02-14T10:24:25;8.40;99.90
20442;DHT22;10380;52.102;20.614;2024-02-14T10:26:52;8.40;99.90
20442;DHT22;10380;52.102;20.614;2024-02-14T10:29:20;8.50;99.90
20442;DHT22;10380;52.102;20.614;2024-02-14T10:31:47;8.50;99.90
20442;DHT22;10380;52.102;20.614;2024-02-14T10:34:15;8.50;99.90
20442;DHT22;10380;52.102;20.614;2024-02-14T10:36:43;8.60;99.90
20442;DHT22;10380;52.102;20.614;2024-02-14T10:39:13;8.50;99.90
20442;DHT22;10380;52.102;20.614;2024-02-14T10:41:42;8.60;99.90
20442;DHT22;10380;52.102;20.614;2024-02-14T10:44:09;8.70;99.90
20442;DHT22;10380;52.102;20.614;2024-02-14T10:46:37;8.60;99.90
20442;DHT22;10380;52.102;20.614;2024-02-14T10:49:06;8.70;99.90
20442;DHT22;10380;52.102;20.614;2024-02-14T10:51:35;8.50;99.90
20442;DHT22;10380;52.102;20.614;2024-02-14T10:54:10;8.70;99.90
20442;DHT22;10380;52.102;20.614;2024-02-14T10:56:42;8.80;99.90
20442;DHT22;10380;52.102;20.614;2024-02-14T10:59:16;8.50;99.90
20442;DHT22;10380;52.102;20.614;2024-02-14T11:01:45;8.80;99.90
20442;DHT22;10380;52.102;20.614;2024-02-14T11:04:13;8.70;99.90
20442;DHT22;10380;52.102;20.614;2024-02-14T11:06:52;8.90;99.90
20442;DHT22;10380;52.102;20.614;2024-02-14T11:09:32;8.80;99.90
20442;DHT22;10380;52.102;20.614;2024-02-14T11:12:06;8.90;99.90
20442;DHT22;10380;52.102;20.614;2024-02-14T11:14:35;8.80;99.90
20442;DHT22;10380;52.102;20.614;2024-02-14T11:17:12;8.90;99.90
20442;DHT22;10380;52.102;20.614;2024-02-14T11:19:39;8.80;99.90
20442;DHT22;10380;52.102;20.614;2024-02-14T11:22:18;8.80;99.90
20442;DHT22;10380;52.102;20.614;2024-02-14T11:24:46;8.90;99.90
20442;DHT22;10380;52.102;20.614;2024-02-14T11:27:14;9.10;99.90
20442;DHT22;10380;52.102;20.614;2024-02-14T11:29:59;9.10;99.90
20442;DHT22;10380;52.102;20.614;2024-02-14T11:32:27;9.10;99.90
20442;DHT22;10380;52.102;20.614;2024-02-14T11:34:55;9.20;99.90
20442;DHT22;10380;52.102;20.614;2024-02-14T11:37:29;9.10;99.90
20442;DHT22;10380;52.102;20.614;2024-02-14T11:39:56;9.20;99.90
20442;DHT22;10380;52.102;20.614;2024-02-14T11:42:24;9.30;99.90
20442;DHT22;10380;52.102;20.614;2024-02-14T11:44:53;9.40;99.90
20442;DHT22;10380;52.102;20.614;2024-02-14T11:47:24;9.50;99.90
20442;DHT22;10380;52.102;20.614;2024-02-14T11:49:51;9.40;99.90
20442;DHT22;10380;52.102;20.614;2024-02-14T11:52:20;9.60;99.90
20442;DHT22;10380;52.102;20.614;2024-02-14T11:54:47;9.70;99.90
20442;DHT22;10380;52.102;20.614;2024-02-14T11:57:18;9.80;99.90
20442;DHT22;10380;52.102;20.614;2024-02-14T11:59:49;9.90;99.90
20442;DHT22;10380;52.102;20.614;2024-02-14T12:02:17;10.10;99.90
20442;DHT22;10380;52.102;20.614;2024-02-14T12:04:48;10.40;99.90
20442;DHT22;10380;52.102;20.614;2024-02-14T12:09:45;10.80;99.90
20442;DHT22;10380;52.102;20.614;2024-02-14T12:12:12;10.80;99.90
20442;DHT22;10380;52.102;20.614;2024-02-14T12:14:42;11.10;99.90
20442;DHT22;10380;52.102;20.614;2024-02-14T12:17:10;11.50;99.90
20442;DHT22;10380;52.102;20.614;2024-02-14T12:19:37;11.70;99.90
20442;DHT22;10380;52.102;20.614;2024-02-14T12:22:10;12.00;99.90
20442;DHT22;10380;52.102;20.614;2024-02-14T12:24:44;13.30;99.90
20442;DHT22;10380;52.102;20.614;2024-02-14T12:27:12;12.30;99.90
20442;DHT22;10380;52.102;20.614;2024-02-14T12:29:40;12.60;99.90
20442;DHT22;10380;52.102;20.614;2024-02-14T12:32:07;12.50;99.90
20442;DHT22;10380;52.102;20.614;2024-02-14T12:34:34;13.00;99.90
20442;DHT22;10380;52.102;20.614;2024-02-14T12:37:03;12.80;99.90
20442;DHT22;10380;52.102;20.614;2024-02-14T12:39:30;12.80;99.90
20442;DHT22;10380;52.102;20.614;2024-02-14T12:41:57;12.80;99.90
20442;DHT22;10380;52.102;20.614;2024-02-14T12:44:23;12.80;99.90
20442;DHT22;10380;52.102;20.614;2024-02-14T12:46:50;12.70;99.90
20442;DHT22;10380;52.102;20.614;2024-02-14T12:49:18;12.70;99.90
20442;DHT22;10380;52.102;20.614;2024-02-14T12:51:45;12.90;99.90
20442;DHT22;10380;52.102;20.614;2024-02-14T12:54:12;13.00;99.90
20442;DHT22;10380;52.102;20.614;2024-02-14T12:56:41;13.00;99.90
20442;DHT22;10380;52.102;20.614;2024-02-14T12:59:08;12.90;99.90
20442;DHT22;10380;52.102;20.614;2024-02-14T13:01:41;12.90;99.90
20442;DHT22;10380;52.102;20.614;2024-02-14T13:04:08;12.90;99.90
20442;DHT22;10380;52.102;20.614;2024-02-14T13:06:36;12.80;99.90
20442;DHT22;10380;52.102;20.614;2024-02-14T13:09:06;12.80;99.90
20442;DHT22;10380;52.102;20.614;2024-02-14T13:11:36;12.50;99.90
20442;DHT22;10380;52.102;20.614;2024-02-14T13:14:04;12.60;99.90
20442;DHT22;10380;52.102;20.614;2024-02-14T13:16:31;12.10;99.90
20442;DHT22;10380;52.102;20.614;2024-02-14T13:18:58;12.00;99.90
20442;DHT22;10380;52.102;20.614;2024-02-14T13:21:25;12.00;99.90
20442;DHT22;10380;52.102;20.614;2024-02-14T13:23:52;11.70;99.90
20442;DHT22;10380;52.102;20.614;2024-02-14T13:26:19;11.70;99.90
20442;DHT22;10380;52.102;20.614;2024-02-14T13:28:46;11.50;99.90
20442;DHT22;10380;52.102;20.614;2024-02-14T13:31:13;11.40;99.90
20442;DHT22;10380;52.102;20.614;2024-02-14T13:36:09;11.10;99.90
20442;DHT22;10380;52.102;20.614;2024-02-14T13:38:36;11.20;99.90
20442;DHT22;10380;52.102;20.614;2024-02-14T13:41:04;11.20;99.90
20442;DHT22;10380;52.102;20.614;2024-02-14T13:43:32;11.10;99.90
20442;DHT22;10380;52.102;20.614;2024-02-14T13:45:59;11.30;99.90
20442;DHT22;10380;52.102;20.614;2024-02-14T13:48:27;11.30;99.90
20442;DHT22;10380;52.102;20.614;2024-02-14T13:50:54;11.30;99.90
20442;DHT22;10380;52.102;20.614;2024-02-14T13:53:21;11.10;99.90
20442;DHT22;10380;52.102;20.614;2024-02-14T13:55:49;11.30;99.90
20442;DHT22;10380;52.102;20.614;2024-02-14T13:58:20;11.50;99.90
20442;DHT22;10380;52.102;20.614;2024-02-14T14:03:14;11.60;99.90
20442;DHT22;10380;52.102;20.614;2024-02-14T14:05:41;11.80;99.90
20442;DHT22;10380;52.102;20.614;2024-02-14T14:08:08;11.50;99.90
20442;DHT22;10380;52.102;20.614;2024-02-14T14:10:35;10.00;99.90
20442;DHT22;10380;52.102;20.614;2024-02-14T14:15:30;11.30;99.90
20442;DHT22;10380;52.102;20.614;2024-02-14T14:18:00;11.30;99.90
20442;DHT22;10380;52.102;20.614;2024-02-14T14:20:28;11.20;99.90
20442;DHT22;10380;52.102;20.614;2024-02-14T14:22:55;11.00;99.90
20442;DHT22;10380;52.102;20.614;2024-02-14T14:25:21;10.90;99.90
20442;DHT22;10380;52.102;20.614;2024-02-14T14:27:49;11.00;99.90
20442;DHT22;10380;52.102;20.614;2024-02-14T14:30:15;10.80;99.90
20442;DHT22;10380;52.102;20.614;2024-02-14T14:32:42;10.60;99.90
20442;DHT22;10380;52.102;20.614;2024-02-14T14:35:09;10.60;99.90
20442;DHT22;10380;52.102;20.614;2024-02-14T14:40:06;10.40;99.90
20442;DHT22;10380;52.102;20.614;2024-02-14T14:42:35;10.30;99.90
20442;DHT22;10380;52.102;20.614;2024-02-14T14:45:04;10.20;99.90
20442;DHT22;10380;52.102;20.614;2024-02-14T14:47:31;10.10;99.90
20442;DHT22;10380;52.102;20.614;2024-02-14T14:49:58;9.90;99.90
20442;DHT22;10380;52.102;20.614;2024-02-14T14:52:26;9.90;99.90
20442;DHT22;10380;52.102;20.614;2024-02-14T14:54:52;9.80;99.90
20442;DHT22;10380;52.102;20.614;2024-02-14T14:57:19;9.70;99.90
20442;DHT22;10380;52.102;20.614;2024-02-14T15:02:14;9.60;99.90
20442;DHT22;10380;52.102;20.614;2024-02-14T15:04:42;9.50;99.90
20442;DHT22;10380;52.102;20.614;2024-02-14T15:07:10;9.40;99.90
20442;DHT22;10380;52.102;20.614;2024-02-14T15:09:38;9.20;99.90
20442;DHT22;10380;52.102;20.614;2024-02-14T15:12:06;9.40;99.90
20442;DHT22;10380;52.102;20.614;2024-02-14T15:14:32;9.50;99.90
20442;DHT22;10380;52.102;20.614;2024-02-14T15:16:59;9.50;99.90
20442;DHT22;10380;52.102;20.614;2024-02-14T15:21:54;9.40;99.90
20442;DHT22;10380;52.102;20.614;2024-02-14T15:24:21;9.20;99.90
20442;DHT22;10380;52.102;20.614;2024-02-14T15:26:48;9.20;99.90
20442;DHT22;10380;52.102;20.614;2024-02-14T15:34:58;9.10;99.90
20442;DHT22;10380;52.102;20.614;2024-02-14T15:37:25;9.00;99.90
20442;DHT22;10380;52.102;20.614;2024-02-14T15:39:52;8.80;99.90
20442;DHT22;10380;52.102;20.614;2024-02-14T15:42:19;8.90;99.90
20442;DHT22;10380;52.102;20.614;2024-02-14T15:44:46;8.70;99.90
20442;DHT22;10380;52.102;20.614;2024-02-14T15:47:13;8.70;99.90
20442;DHT22;10380;52.102;20.614;2024-02-14T15:54:36;8.50;99.90
20442;DHT22;10380;52.102;20.614;2024-02-14T15:57:04;8.60;99.90
20442;DHT22;10380;52.102;20.614;2024-02-14T16:31:34;8.00;99.90
20442;DHT22;10380;52.102;20.614;2024-02-14T16:48:47;7.90;99.90
20442;DHT22;10380;52.102;20.614;2024-02-14T16:51:14;7.70;99.90
20442;DHT22;10380;52.102;20.614;2024-02-14T16:53:44;7.80;99.90
20442;DHT22;10380;52.102;20.614;2024-02-14T16:56:11;7.40;99.90
20442;DHT22;10380;52.102;20.614;2024-02-14T16:58:38;7.80;99.90
20442;DHT22;10380;52.102;20.614;2024-02-14T17:01:05;7.80;99.90
20442;DHT22;10380;52.102;20.614;2024-02-14T17:06:12;7.90;99.90
20442;DHT22;10380;52.102;20.614;2024-02-14T17:11:14;7.70;99.90
20442;DHT22;10380;52.102;20.614;2024-02-14T17:16:10;7.60;99.90
20442;DHT22;10380;52.102;20.614;2024-02-14T17:18:37;7.60;99.90
20442;DHT22;10380;52.102;20.614;2024-02-14T17:26:03;7.60;99.90
20442;DHT22;10380;52.102;20.614;2024-02-14T17:28:30;7.60;99.90
20442;DHT22;10380;52.102;20.614;2024-02-14T17:43:16;7.50;99.90
20442;DHT22;10380;52.102;20.614;2024-02-14T18:07:53;7.40;99.90
20442;DHT22;10380;52.102;20.614;2024-02-14T18:10:22;7.50;99.90
20442;DHT22;10380;52.102;20.614;2024-02-14T18:17:45;7.70;99.90
20442;DHT22;10380;52.102;20.614;2024-02-14T18:20:12;7.50;99.90
20442;DHT22;10380;52.102;20.614;2024-02-14T18:22:39;7.40;99.90
20442;DHT22;10380;52.102;20.614;2024-02-14T18:25:06;7.50;99.90
20442;DHT22;10380;52.102;20.614;2024-02-14T18:27:33;7.50;99.90
20442;DHT22;10380;52.102;20.614;2024-02-14T18:32:29;7.40;99.90
20442;DHT22;10380;52.102;20.614;2024-02-14T18:42:20;7.40;99.90
20442;DHT22;10380;52.102;20.614;2024-02-14T18:44:48;7.40;99.90
20442;DHT22;10380;52.102;20.614;2024-02-14T18:52:12;7.30;99.90
20442;DHT22;10380;52.102;20.614;2024-02-14T18:57:07;7.40;99.90
20442;DHT22;10380;52.102;20.614;2024-02-14T18:59:36;7.50;99.90
20442;DHT22;10380;52.102;20.614;2024-02-14T19:04:34;7.70;99.90
20442;DHT22;10380;52.102;20.614;2024-02-14T19:07:02;7.40;99.90
20442;DHT22;10380;52.102;20.614;2024-02-14T19:16:53;7.30;99.90
20442;DHT22;10380;52.102;20.614;2024-02-14T19:19:20;7.30;99.90
20442;DHT22;10380;52.102;20.614;2024-02-14T19:24:16;7.70;99.90
20442;DHT22;10380;52.102;20.614;2024-02-14T19:26:43;7.20;99.90
20442;DHT22;10380;52.102;20.614;2024-02-14T19:31:37;7.20;99.90
20442;DHT22;10380;52.102;20.614;2024-02-14T19:39:04;7.20;99.90
20442;DHT22;10380;52.102;20.614;2024-02-14T19:41:31;7.20;99.90
20442;DHT22;10380;52.102;20.614;2024-02-14T19:43:58;7.30;99.90
20442;DHT22;10380;52.102;20.614;2024-02-14T19:51:21;7.60;99.90
20442;DHT22;10380;52.102;20.614;2024-02-14T19:56:17;7.20;99.90
20442;DHT22;10380;52.102;20.614;2024-02-14T20:01:11;7.20;99.90
20442;DHT22;10380;52.102;20.614;2024-02-14T20:03:38;7.20;99.90
20442;DHT22;10380;52.102;20.614;2024-02-14T20:11:04;7.10;99.90
20442;DHT22;10380;52.102;20.614;2024-02-14T20:13:34;7.10;99.90
20442;DHT22;10380;52.102;20.614;2024-02-14T20:16:02;7.00;99.90
20442;DHT22;10380;52.102;20.614;2024-02-14T20:18:29;7.00;99.90
20442;DHT22;10380;52.102;20.614;2024-02-14T20:20:57;7.10;99.90
20442;DHT22;10380;52.102;20.614;2024-02-14T20:30:52;6.70;99.90
20442;DHT22;10380;52.102;20.614;2024-02-14T20:33:19;7.00;99.90
20442;DHT22;10380;52.102;20.614;2024-02-14T20:35:46;7.00;99.90
20442;DHT22;10380;52.102;20.614;2024-02-14T20:38:13;7.00;99.90
20442;DHT22;10380;52.102;20.614;2024-02-14T20:40:40;7.00;99.90
20442;DHT22;10380;52.102;20.614;2024-02-14T20:43:07;7.00;99.90
20442;DHT22;10380;52.102;20.614;2024-02-14T20:52:58;7.10;99.90
20442;DHT22;10380;52.102;20.614;2024-02-14T20:55:25;7.00;99.90
20442;DHT22;10380;52.102;20.614;2024-02-14T21:05:17;7.00;99.90
20442;DHT22;10380;52.102;20.614;2024-02-14T21:12:43;7.00;99.90
20442;DHT22;10380;52.102;20.614;2024-02-14T21:15:10;7.00;99.90
20442;DHT22;10380;52.102;20.614;2024-02-14T21:17:38;7.10;99.90
20442;DHT22;10380;52.102;20.614;2024-02-14T21:20:05;7.10;99.90
20442;DHT22;10380;52.102;20.614;2024-02-14T21:22:33;7.10;99.90
20442;DHT22;10380;52.102;20.614;2024-02-14T21:25:01;7.10;99.90
20442;DHT22;10380;52.102;20.614;2024-02-14T21:27:30;7.10;99.90
20442;DHT22;10380;52.102;20.614;2024-02-14T21:29:57;7.10;99.90
20442;DHT22;10380;52.102;20.614;2024-02-14T21:32:25;7.10;99.90
20442;DHT22;10380;52.102;20.614;2024-02-14T21:34:53;6.70;99.90
20442;DHT22;10380;52.102;20.614;2024-02-14T21:39:48;7.00;99.90
20442;DHT22;10380;52.102;20.614;2024-02-14T21:44:43;7.00;99.90
20442;DHT22;10380;52.102;20.614;2024-02-14T21:54:34;6.90;99.90
20442;DHT22;10380;52.102;20.614;2024-02-14T22:16:42;6.90;99.90
20442;DHT22;10380;52.102;20.614;2024-02-14T22:19:11;6.90;99.90
20442;DHT22;10380;52.102;20.614;2024-02-14T22:38:54;6.90;99.90
20442;DHT22;10380;52.102;20.614;2024-02-14T22:41:21;6.90;99.90
20442;DHT22;10380;52.102;20.614;2024-02-14T22:43:49;6.70;99.90
20442;DHT22;10380;52.102;20.614;2024-02-14T22:48:49;6.80;99.90
20442;DHT22;10380;52.102;20.614;2024-02-14T22:51:16;6.90;99.90
20442;DHT22;10380;52.102;20.614;2024-02-14T22:58:38;7.00;99.90
20442;DHT22;10380;52.102;20.614;2024-02-14T23:01:05;7.10;99.90
20442;DHT22;10380;52.102;20.614;2024-02-14T23:10:55;6.90;99.90
20442;DHT22;10380;52.102;20.614;2024-02-14T23:13:24;6.80;99.90